sensor_id;sensor_type;location;lat;lon;timestamp;pressure;altitude;pressure_sealevel;temperature;humidity
54512;BME280;40419;47.438;19.026;2023-02-13T00:00:20;101972.22;;;-0.24;100.00
54512;BME280;40419;47.438;19.026;2023-02-13T00:02:45;101974.28;;;-0.29;100.00
54512;BME280;40419;47.438;19.026;2023-02-13T00:05:13;101971.06;;;-0.19;100.00
54512;BME280;40419;47.438;19.026;2023-02-13T00:07:41;101972.94;;;-0.21;100.00
54512;BME280;40419;47.438;19.026;2023-02-13T00:10:07;101968.34;;;-0.34;100.00
54512;BME280;40419;47.438;19.026;2023-02-13T00:12:35;101980.47;;;-0.29;100.00
54512;BME280;40419;47.438;19.026;2023-02-13T00:15:02;101991.34;;;-0.16;100.00
54512;BME280;40419;47.438;19.026;2023-02-13T00:17:31;101984.63;;;-0.23;100.00
54512;BME280;40419;47.438;19.026;2023-02-13T00:19:57;101980.16;;;-0.23;100.00
54512;BME280;40419;47.438;19.026;2023-02-13T00:22:22;101979.69;;;-0.13;100.00
54512;BME280;40419;47.438;19.026;2023-02-13T00:24:48;101991.19;;;-0.13;100.00
54512;BME280;40419;47.438;19.026;2023-02-13T00:27:16;101996.66;;;-0.16;100.00
54512;BME280;40419;47.438;19.026;2023-02-13T00:29:42;102000.31;;;-0.01;100.00
54512;BME280;40419;47.438;19.026;2023-02-13T00:32:08;102001.84;;;-0.13;100.00
54512;BME280;40419;47.438;19.026;2023-02-13T00:34:35;101995.31;;;-0.07;100.00
54512;BME280;40419;47.438;19.026;2023-02-13T00:37:05;101988.94;;;-0.05;100.00
54512;BME280;40419;47.438;19.026;2023-02-13T00:39:33;101987.66;;;-0.13;100.00
54512;BME280;40419;47.438;19.026;2023-02-13T00:42:02;101985.88;;;-0.30;100.00
54512;BME280;40419;47.438;19.026;2023-02-13T00:44:32;101986.78;;;-0.14;100.00
54512;BME280;40419;47.438;19.026;2023-02-13T00:47:00;101991.75;;;-0.24;100.00
54512;BME280;40419;47.438;19.026;2023-02-13T00:49:29;101991.59;;;-0.38;100.00
54512;BME280;40419;47.438;19.026;2023-02-13T00:52:00;101981.75;;;-0.36;100.00
54512;BME280;40419;47.438;19.026;2023-02-13T00:54:25;101987.06;;;-0.36;100.00
54512;BME280;40419;47.438;19.026;2023-02-13T00:56:53;101989.19;;;-0.43;100.00
54512;BME280;40419;47.438;19.026;2023-02-13T00:59:24;101994.97;;;-0.34;100.00
54512;BME280;40419;47.438;19.026;2023-02-13T01:01:49;101981.72;;;-0.19;100.00
54512;BME280;40419;47.438;19.026;2023-02-13T01:04:15;101985.53;;;-0.24;100.00
54512;BME280;40419;47.438;19.026;2023-02-13T01:06:41;101978.69;;;-0.28;100.00
54512;BME280;40419;47.438;19.026;2023-02-13T01:09:06;101973.19;;;-0.25;100.00
54512;BME280;40419;47.438;19.026;2023-02-13T01:11:34;101972.72;;;-0.33;100.00
54512;BME280;40419;47.438;19.026;2023-02-13T01:14:02;101964.56;;;-0.30;100.00
54512;BME280;40419;47.438;19.026;2023-02-13T01:16:28;101958.06;;;-0.25;100.00
54512;BME280;40419;47.438;19.026;2023-02-13T01:18:54;101957.31;;;-0.27;100.00
54512;BME280;40419;47.438;19.026;2023-02-13T01:21:29;101963.19;;;-0.38;100.00
54512;BME280;40419;47.438;19.026;2023-02-13T01:23:54;101958.72;;;-0.37;100.00
54512;BME280;40419;47.438;19.026;2023-02-13T01:26:22;101958.13;;;-0.60;100.00
54512;BME280;40419;47.438;19.026;2023-02-13T01:28:53;101954.53;;;-0.59;100.00
54512;BME280;40419;47.438;19.026;2023-02-13T01:31:19;101957.16;;;-0.41;100.00
54512;BME280;40419;47.438;19.026;2023-02-13T01:33:48;101957.88;;;-0.38;100.00
54512;BME280;40419;47.438;19.026;2023-02-13T01:36:14;101952.88;;;-0.61;100.00
54512;BME280;40419;47.438;19.026;2023-02-13T01:38:40;101957.72;;;-0.52;100.00
54512;BME280;40419;47.438;19.026;2023-02-13T01:41:09;101945.06;;;-0.64;100.00
54512;BME280;40419;47.438;19.026;2023-02-13T01:46:17;101955.78;;;-0.66;100.00
54512;BME280;40419;47.438;19.026;2023-02-13T01:48:43;101959.59;;;-0.54;100.00
54512;BME280;40419;47.438;19.026;2023-02-13T01:51:18;101951.72;;;-0.56;100.00
54512;BME280;40419;47.438;19.026;2023-02-13T01:53:56;101943.47;;;-0.51;100.00
54512;BME280;40419;47.438;19.026;2023-02-13T01:56:35;101946.63;;;-0.60;100.00
54512;BME280;40419;47.438;19.026;2023-02-13T01:59:27;101947.47;;;-0.60;100.00
54512;BME280;40419;47.438;19.026;2023-02-13T02:01:54;101955.69;;;-0.64;100.00
54512;BME280;40419;47.438;19.026;2023-02-13T02:04:28;101952.31;;;-0.50;100.00
54512;BME280;40419;47.438;19.026;2023-02-13T02:07:01;101947.38;;;-0.41;100.00
54512;BME280;40419;47.438;19.026;2023-02-13T02:09:33;101946.31;;;-0.54;100.00
54512;BME280;40419;47.438;19.026;2023-02-13T02:12:23;101943.16;;;-0.45;100.00
54512;BME280;40419;47.438;19.026;2023-02-13T02:14:57;101938.06;;;-0.49;100.00
54512;BME280;40419;47.438;19.026;2023-02-13T02:17:29;101941.47;;;-0.63;100.00
54512;BME280;40419;47.438;19.026;2023-02-13T02:37:16;101947.38;;;-0.41;100.00
54512;BME280;40419;47.438;19.026;2023-02-13T02:51:23;101946.84;;;-0.47;100.00
54512;BME280;40419;47.438;19.026;2023-02-13T02:56:36;101942.69;;;-0.53;100.00
54512;BME280;40419;47.438;19.026;2023-02-13T02:59:17;101947.63;;;-0.63;100.00
54512;BME280;40419;47.438;19.026;2023-02-13T03:02:04;101940.66;;;-0.65;100.00
54512;BME280;40419;47.438;19.026;2023-02-13T03:04:53;101943.25;;;-0.99;100.00
54512;BME280;40419;47.438;19.026;2023-02-13T03:07:41;101944.91;;;-0.96;100.00
54512;BME280;40419;47.438;19.026;2023-02-13T03:10:15;101946.31;;;-0.72;100.00
54512;BME280;40419;47.438;19.026;2023-02-13T03:13:08;101937.88;;;-0.80;100.00
54512;BME280;40419;47.438;19.026;2023-02-13T03:15:48;101942.16;;;-0.77;100.00
54512;BME280;40419;47.438;19.026;2023-02-13T03:18:42;101932.75;;;-1.02;100.00
54512;BME280;40419;47.438;19.026;2023-02-13T03:21:50;101941.19;;;-0.94;100.00
54512;BME280;40419;47.438;19.026;2023-02-13T03:27:40;101935.03;;;-1.12;100.00
54512;BME280;40419;47.438;19.026;2023-02-13T03:33:01;101937.69;;;-0.94;100.00
54512;BME280;40419;47.438;19.026;2023-02-13T03:35:51;101942.31;;;-0.98;100.00
54512;BME280;40419;47.438;19.026;2023-02-13T03:41:40;101934.09;;;-0.93;100.00
54512;BME280;40419;47.438;19.026;2023-02-13T03:46:45;101931.84;;;-1.01;100.00
54512;BME280;40419;47.438;19.026;2023-02-13T03:53:28;101921.94;;;-1.16;100.00
54512;BME280;40419;47.438;19.026;2023-02-13T03:55:37;101919.94;;;-1.11;100.00
54512;BME280;40419;47.438;19.026;2023-02-13T03:58:28;101940.09;;;-1.25;100.00
54512;BME280;40419;47.438;19.026;2023-02-13T04:01:18;101924.31;;;-1.10;100.00
54512;BME280;40419;47.438;19.026;2023-02-13T04:03:58;101925.63;;;-1.01;100.00
54512;BME280;40419;47.438;19.026;2023-02-13T04:06:46;101933.00;;;-1.07;100.00
54512;BME280;40419;47.438;19.026;2023-02-13T04:09:14;101928.78;;;-0.93;100.00
54512;BME280;40419;47.438;19.026;2023-02-13T04:14:24;101938.53;;;-0.94;100.00
54512;BME280;40419;47.438;19.026;2023-02-13T04:17:13;101937.53;;;-0.91;100.00
54512;BME280;40419;47.438;19.026;2023-02-13T04:19:44;101937.69;;;-0.94;100.00
54512;BME280;40419;47.438;19.026;2023-02-13T04:22:12;101942.94;;;-0.93;100.00
54512;BME280;40419;47.438;19.026;2023-02-13T04:24:38;101929.56;;;-1.09;100.00
54512;BME280;40419;47.438;19.026;2023-02-13T04:27:03;101933.91;;;-1.08;100.00
54512;BME280;40419;47.438;19.026;2023-02-13T04:29:29;101939.22;;;-1.25;100.00
54512;BME280;40419;47.438;19.026;2023-02-13T04:31:54;101931.25;;;-1.25;100.00
54512;BME280;40419;47.438;19.026;2023-02-13T04:34:20;101934.84;;;-1.26;100.00
54512;BME280;40419;47.438;19.026;2023-02-13T04:36:50;101931.41;;;-1.28;100.00
54512;BME280;40419;47.438;19.026;2023-02-13T04:39:18;101934.00;;;-1.27;100.00
54512;BME280;40419;47.438;19.026;2023-02-13T04:41:44;101925.38;;;-1.32;100.00
54512;BME280;40419;47.438;19.026;2023-02-13T04:44:09;101926.03;;;-1.27;100.00
54512;BME280;40419;47.438;19.026;2023-02-13T04:46:35;101915.06;;;-1.20;100.00
54512;BME280;40419;47.438;19.026;2023-02-13T04:49:03;101919.34;;;-1.18;100.00
54512;BME280;40419;47.438;19.026;2023-02-13T04:51:31;101929.06;;;-1.34;100.00
54512;BME280;40419;47.438;19.026;2023-02-13T04:53:56;101936.53;;;-1.43;100.00
54512;BME280;40419;47.438;19.026;2023-02-13T04:56:22;101929.06;;;-1.34;100.00
54512;BME280;40419;47.438;19.026;2023-02-13T04:58:49;101915.63;;;-1.31;100.00
54512;BME280;40419;47.438;19.026;2023-02-13T05:01:17;101922.00;;;-1.35;100.00
54512;BME280;40419;47.438;19.026;2023-02-13T05:03:43;101917.59;;;-1.54;100.00
54512;BME280;40419;47.438;19.026;2023-02-13T05:06:09;101921.81;;;-1.50;100.00
54512;BME280;40419;47.438;19.026;2023-02-13T05:08:34;101924.75;;;-1.56;100.00
54512;BME280;40419;47.438;19.026;2023-02-13T05:11:02;101916.47;;;-1.67;100.00
54512;BME280;40419;47.438;19.026;2023-02-13T05:13:28;101905.69;;;-1.64;100.00
54512;BME280;40419;47.438;19.026;2023-02-13T05:15:54;101914.13;;;-1.56;100.00
54512;BME280;40419;47.438;19.026;2023-02-13T05:18:22;101908.19;;;-1.61;100.00
54512;BME280;40419;47.438;19.026;2023-02-13T05:20:47;101906.84;;;-1.70;100.00
54512;BME280;40419;47.438;19.026;2023-02-13T05:23:33;101902.81;;;-1.59;100.00
54512;BME280;40419;47.438;19.026;2023-02-13T05:25:58;101896.75;;;-1.63;100.00
54512;BME280;40419;47.438;19.026;2023-02-13T05:28:24;101900.69;;;-1.53;100.00
54512;BME280;40419;47.438;19.026;2023-02-13T05:31:08;101899.91;;;-1.55;100.00
54512;BME280;40419;47.438;19.026;2023-02-13T05:33:37;101896.56;;;-1.58;100.00
54512;BME280;40419;47.438;19.026;2023-02-13T05:36:03;101894.97;;;-1.63;100.00
54512;BME280;40419;47.438;19.026;2023-02-13T05:38:31;101889.00;;;-1.68;100.00
54512;BME280;40419;47.438;19.026;2023-02-13T05:41:00;101901.34;;;-1.48;100.00
54512;BME280;40419;47.438;19.026;2023-02-13T05:43:28;101899.81;;;-1.34;100.00
54512;BME280;40419;47.438;19.026;2023-02-13T05:46:05;101891.28;;;-1.41;100.00
54512;BME280;40419;47.438;19.026;2023-02-13T05:48:35;101910.72;;;-1.96;100.00
54512;BME280;40419;47.438;19.026;2023-02-13T05:51:01;101905.75;;;-1.85;100.00
54512;BME280;40419;47.438;19.026;2023-02-13T05:53:27;101915.03;;;-2.12;100.00
54512;BME280;40419;47.438;19.026;2023-02-13T05:55:54;101913.38;;;-1.96;100.00
54512;BME280;40419;47.438;19.026;2023-02-13T05:58:20;101903.94;;;-1.84;100.00
54512;BME280;40419;47.438;19.026;2023-02-13T06:00:48;101906.56;;;-1.83;100.00
54512;BME280;40419;47.438;19.026;2023-02-13T06:03:14;101904.25;;;-1.71;100.00
54512;BME280;40419;47.438;19.026;2023-02-13T06:05:41;101905.75;;;-1.66;100.00
54512;BME280;40419;47.438;19.026;2023-02-13T06:08:08;101908.97;;;-1.59;100.00
54512;BME280;40419;47.438;19.026;2023-02-13T06:10:33;101916.34;;;-1.47;100.00
54512;BME280;40419;47.438;19.026;2023-02-13T06:12:59;101925.50;;;-1.52;100.00
54512;BME280;40419;47.438;19.026;2023-02-13T06:15:24;101933.16;;;-1.46;100.00
54512;BME280;40419;47.438;19.026;2023-02-13T06:17:50;101934.59;;;-1.58;100.00
54512;BME280;40419;47.438;19.026;2023-02-13T06:20:18;101946.91;;;-1.74;100.00
54512;BME280;40419;47.438;19.026;2023-02-13T06:22:47;101951.19;;;-1.91;100.00
54512;BME280;40419;47.438;19.026;2023-02-13T06:25:16;101942.09;;;-1.85;100.00
54512;BME280;40419;47.438;19.026;2023-02-13T06:27:42;101939.41;;;-1.66;100.00
54512;BME280;40419;47.438;19.026;2023-02-13T06:30:09;101945.53;;;-1.64;100.00
54512;BME280;40419;47.438;19.026;2023-02-13T06:32:34;101947.16;;;-1.62;100.00
54512;BME280;40419;47.438;19.026;2023-02-13T06:35:00;101943.72;;;-1.45;100.00
54512;BME280;40419;47.438;19.026;2023-02-13T06:37:25;101947.75;;;-1.18;100.00
54512;BME280;40419;47.438;19.026;2023-02-13T06:39:51;101964.22;;;-1.10;100.00
54512;BME280;40419;47.438;19.026;2023-02-13T06:42:19;101960.66;;;-1.11;100.00
54512;BME280;40419;47.438;19.026;2023-02-13T06:44:44;101949.56;;;-1.01;100.00
54512;BME280;40419;47.438;19.026;2023-02-13T06:47:10;101954.13;;;-0.86;100.00
54512;BME280;40419;47.438;19.026;2023-02-13T06:49:40;101942.47;;;-1.01;100.00
54512;BME280;40419;47.438;19.026;2023-02-13T06:52:06;101947.06;;;-1.04;100.00
54512;BME280;40419;47.438;19.026;2023-02-13T06:54:31;101948.16;;;-0.91;100.00
54512;BME280;40419;47.438;19.026;2023-02-13T06:56:57;101953.75;;;-0.78;100.00
54512;BME280;40419;47.438;19.026;2023-02-13T06:59:22;101957.09;;;-0.75;100.00
54512;BME280;40419;47.438;19.026;2023-02-13T07:01:48;101950.38;;;-0.82;100.00
54512;BME280;40419;47.438;19.026;2023-02-13T07:04:14;101948.91;;;-0.87;100.00
54512;BME280;40419;47.438;19.026;2023-02-13T07:06:41;101949.50;;;-1.00;100.00
54512;BME280;40419;47.438;19.026;2023-02-13T07:09:07;101957.03;;;-0.91;100.00
54512;BME280;40419;47.438;19.026;2023-02-13T07:11:33;101951.28;;;-1.00;100.00
54512;BME280;40419;47.438;19.026;2023-02-13T07:14:01;101949.41;;;-0.98;100.00
54512;BME280;40419;47.438;19.026;2023-02-13T07:16:29;101956.63;;;-0.65;100.00
54512;BME280;40419;47.438;19.026;2023-02-13T07:18:54;101957.94;;;-0.74;100.00
54512;BME280;40419;47.438;19.026;2023-02-13T07:21:20;101959.75;;;-0.92;100.00
54512;BME280;40419;47.438;19.026;2023-02-13T07:23:45;101959.59;;;-0.72;100.00
54512;BME280;40419;47.438;19.026;2023-02-13T07:26:14;101961.00;;;-0.64;100.00
54512;BME280;40419;47.438;19.026;2023-02-13T07:28:40;101957.97;;;-0.57;100.00
54512;BME280;40419;47.438;19.026;2023-02-13T07:31:06;101961.78;;;-0.45;100.00
54512;BME280;40419;47.438;19.026;2023-02-13T07:33:37;101966.94;;;-0.42;100.00
54512;BME280;40419;47.438;19.026;2023-02-13T07:36:03;101960.06;;;-0.46;100.00
54512;BME280;40419;47.438;19.026;2023-02-13T07:38:30;101964.53;;;-0.46;100.00
54512;BME280;40419;47.438;19.026;2023-02-13T07:41:02;101958.56;;;-0.51;100.00
54512;BME280;40419;47.438;19.026;2023-02-13T07:43:28;101966.94;;;-0.42;100.00
54512;BME280;40419;47.438;19.026;2023-02-13T07:45:58;101967.28;;;-0.14;100.00
54512;BME280;40419;47.438;19.026;2023-02-13T07:48:24;101972.69;;;-0.16;100.00
54512;BME280;40419;47.438;19.026;2023-02-13T07:50:53;101967.81;;;-0.08;100.00
54512;BME280;40419;47.438;19.026;2023-02-13T07:53:19;101977.69;;;-0.10;100.00
54512;BME280;40419;47.438;19.026;2023-02-13T07:55:48;101974.03;;;-0.07;100.00
54512;BME280;40419;47.438;19.026;2023-02-13T07:58:14;101979.25;;;-0.06;100.00
54512;BME280;40419;47.438;19.026;2023-02-13T08:00:39;101978.13;;;-0.02;100.00
54512;BME280;40419;47.438;19.026;2023-02-13T08:03:08;101989.38;;;-0.12;100.00
54512;BME280;40419;47.438;19.026;2023-02-13T08:05:34;101982.28;;;0.04;100.00
54512;BME280;40419;47.438;19.026;2023-02-13T08:08:06;101996.75;;;0.16;100.00
54512;BME280;40419;47.438;19.026;2023-02-13T08:10:32;101984.19;;;0.18;100.00
54512;BME280;40419;47.438;19.026;2023-02-13T08:13:17;101987.31;;;0.26;100.00
54512;BME280;40419;47.438;19.026;2023-02-13T08:15:47;101983.81;;;0.42;100.00
54512;BME280;40419;47.438;19.026;2023-02-13T08:18:15;101978.13;;;0.48;100.00
54512;BME280;40419;47.438;19.026;2023-02-13T08:20:40;101970.50;;;0.58;100.00
54512;BME280;40419;47.438;19.026;2023-02-13T08:23:09;101969.63;;;0.57;100.00
54512;BME280;40419;47.438;19.026;2023-02-13T08:25:37;101979.09;;;0.63;100.00
54512;BME280;40419;47.438;19.026;2023-02-13T08:28:07;101972.56;;;0.68;100.00
54512;BME280;40419;47.438;19.026;2023-02-13T08:30:33;101973.47;;;0.83;100.00
54512;BME280;40419;47.438;19.026;2023-02-13T08:33:01;101967.94;;;1.02;95.46
54512;BME280;40419;47.438;19.026;2023-02-13T08:35:29;101959.44;;;0.80;95.02
54512;BME280;40419;47.438;19.026;2023-02-13T08:38:00;101964.50;;;1.00;93.74
54512;BME280;40419;47.438;19.026;2023-02-13T08:40:28;101958.41;;;0.98;93.12
54512;BME280;40419;47.438;19.026;2023-02-13T08:42:59;101956.97;;;1.23;93.05
54512;BME280;40419;47.438;19.026;2023-02-13T08:45:25;101962.69;;;1.31;92.16
54512;BME280;40419;47.438;19.026;2023-02-13T08:48:01;101951.84;;;1.04;92.43
54512;BME280;40419;47.438;19.026;2023-02-13T08:50:28;101958.81;;;1.06;93.28
54512;BME280;40419;47.438;19.026;2023-02-13T08:52:54;101960.19;;;1.28;92.75
54512;BME280;40419;47.438;19.026;2023-02-13T08:55:19;101958.69;;;1.24;91.26
54512;BME280;40419;47.438;19.026;2023-02-13T08:57:48;101960.63;;;1.36;91.13
54512;BME280;40419;47.438;19.026;2023-02-13T09:00:13;101967.09;;;1.32;91.58
54512;BME280;40419;47.438;19.026;2023-02-13T09:02:39;101963.13;;;1.54;92.48
54512;BME280;40419;47.438;19.026;2023-02-13T09:05:07;101960.63;;;1.51;91.19
54512;BME280;40419;47.438;19.026;2023-02-13T09:07:32;101962.13;;;1.71;89.14
54512;BME280;40419;47.438;19.026;2023-02-13T09:10:00;101969.53;;;1.51;89.30
54512;BME280;40419;47.438;19.026;2023-02-13T09:12:30;101968.69;;;1.80;89.26
54512;BME280;40419;47.438;19.026;2023-02-13T09:14:58;101962.41;;;1.66;88.82
54512;BME280;40419;47.438;19.026;2023-02-13T09:17:30;101965.53;;;1.73;89.74
54512;BME280;40419;47.438;19.026;2023-02-13T09:19:58;101965.81;;;1.83;87.97
54512;BME280;40419;47.438;19.026;2023-02-13T09:22:27;101964.41;;;1.77;87.37
54512;BME280;40419;47.438;19.026;2023-02-13T09:24:56;101967.38;;;1.87;87.09
54512;BME280;40419;47.438;19.026;2023-02-13T09:27:23;101971.19;;;1.97;86.45
54512;BME280;40419;47.438;19.026;2023-02-13T09:29:48;101972.81;;;1.85;86.92
54512;BME280;40419;47.438;19.026;2023-02-13T09:32:16;101967.56;;;2.12;86.88
54512;BME280;40419;47.438;19.026;2023-02-13T09:34:42;101979.00;;;2.29;87.41
54512;BME280;40419;47.438;19.026;2023-02-13T09:37:07;101973.44;;;2.32;85.85
54512;BME280;40419;47.438;19.026;2023-02-13T09:39:33;101967.34;;;2.30;86.07
54512;BME280;40419;47.438;19.026;2023-02-13T09:42:14;101968.69;;;2.37;86.16
54512;BME280;40419;47.438;19.026;2023-02-13T09:44:43;101974.94;;;2.51;86.20
54512;BME280;40419;47.438;19.026;2023-02-13T09:49:46;101966.59;;;2.70;84.40
54512;BME280;40419;47.438;19.026;2023-02-13T09:52:16;101963.19;;;2.68;83.56
54512;BME280;40419;47.438;19.026;2023-02-13T09:54:41;101958.19;;;2.76;84.13
54512;BME280;40419;47.438;19.026;2023-02-13T09:57:16;101955.25;;;2.93;83.92
54512;BME280;40419;47.438;19.026;2023-02-13T10:00:14;101961.25;;;2.97;82.87
54512;BME280;40419;47.438;19.026;2023-02-13T10:08:19;101942.88;;;3.05;83.55
54512;BME280;40419;47.438;19.026;2023-02-13T10:10:51;101941.59;;;3.11;83.33
54512;BME280;40419;47.438;19.026;2023-02-13T10:13:57;101940.84;;;3.09;82.84
54512;BME280;40419;47.438;19.026;2023-02-13T10:16:40;101935.91;;;3.15;82.99
54512;BME280;40419;47.438;19.026;2023-02-13T10:27:15;101920.66;;;3.56;82.14
54512;BME280;40419;47.438;19.026;2023-02-13T10:29:46;101933.84;;;3.72;81.57
54512;BME280;40419;47.438;19.026;2023-02-13T10:35:20;101922.00;;;4.13;82.80
54512;BME280;40419;47.438;19.026;2023-02-13T10:37:53;101928.56;;;4.09;79.48
54512;BME280;40419;47.438;19.026;2023-02-13T10:40:19;101926.38;;;4.27;78.54
54512;BME280;40419;47.438;19.026;2023-02-13T10:42:52;101910.25;;;4.40;78.57
54512;BME280;40419;47.438;19.026;2023-02-13T10:51:44;101902.09;;;4.66;78.07
54512;BME280;40419;47.438;19.026;2023-02-13T10:57:03;101890.75;;;4.38;76.18
54512;BME280;40419;47.438;19.026;2023-02-13T11:02:21;101894.44;;;4.48;74.39
54512;BME280;40419;47.438;19.026;2023-02-13T11:04:50;101889.50;;;4.55;74.48
54512;BME280;40419;47.438;19.026;2023-02-13T11:07:20;101886.34;;;4.61;76.28
54512;BME280;40419;47.438;19.026;2023-02-13T11:09:48;101878.88;;;4.53;75.00
54512;BME280;40419;47.438;19.026;2023-02-13T11:14:55;101867.22;;;5.01;73.71
54512;BME280;40419;47.438;19.026;2023-02-13T11:17:22;101870.59;;;4.92;74.43
54512;BME280;40419;47.438;19.026;2023-02-13T11:19:52;101865.72;;;4.86;73.93
54512;BME280;40419;47.438;19.026;2023-02-13T11:22:38;101863.69;;;5.01;74.16
54512;BME280;40419;47.438;19.026;2023-02-13T11:25:17;101854.78;;;5.00;75.00
54512;BME280;40419;47.438;19.026;2023-02-13T11:27:45;101856.38;;;5.03;75.66
54512;BME280;40419;47.438;19.026;2023-02-13T11:40:45;101844.53;;;4.94;75.48
54512;BME280;40419;47.438;19.026;2023-02-13T11:43:21;101836.88;;;5.12;75.18
54512;BME280;40419;47.438;19.026;2023-02-13T11:51:43;101830.03;;;5.19;74.47
54512;BME280;40419;47.438;19.026;2023-02-13T11:56:53;101820.81;;;5.35;74.99
54512;BME280;40419;47.438;19.026;2023-02-13T11:59:23;101810.91;;;5.35;75.34
54512;BME280;40419;47.438;19.026;2023-02-13T12:04:26;101813.72;;;5.56;74.38
54512;BME280;40419;47.438;19.026;2023-02-13T12:07:24;101817.25;;;5.45;75.04
54512;BME280;40419;47.438;19.026;2023-02-13T12:09:59;101824.09;;;5.49;75.69
54512;BME280;40419;47.438;19.026;2023-02-13T12:12:33;101818.94;;;5.46;76.21
54512;BME280;40419;47.438;19.026;2023-02-13T12:15:02;101818.38;;;5.54;75.20
54512;BME280;40419;47.438;19.026;2023-02-13T12:17:35;101797.09;;;5.62;74.62
54512;BME280;40419;47.438;19.026;2023-02-13T12:20:02;101807.34;;;5.68;75.38
54512;BME280;40419;47.438;19.026;2023-02-13T12:28:06;101796.75;;;5.78;75.47
54512;BME280;40419;47.438;19.026;2023-02-13T12:36:48;101782.28;;;5.79;75.24
54512;BME280;40419;47.438;19.026;2023-02-13T12:39:31;101784.88;;;5.70;76.09
54512;BME280;40419;47.438;19.026;2023-02-13T12:42:27;101772.91;;;5.74;76.54
54512;BME280;40419;47.438;19.026;2023-02-13T12:44:59;101770.69;;;5.67;76.82
54512;BME280;40419;47.438;19.026;2023-02-13T12:47:36;101759.81;;;5.69;76.58
54512;BME280;40419;47.438;19.026;2023-02-13T12:58:56;101747.72;;;5.86;76.42
54512;BME280;40419;47.438;19.026;2023-02-13T13:01:47;101732.56;;;5.85;76.48
54512;BME280;40419;47.438;19.026;2023-02-13T13:15:37;101731.59;;;5.75;80.17
54512;BME280;40419;47.438;19.026;2023-02-13T13:18:18;101732.22;;;5.78;80.23
54512;BME280;40419;47.438;19.026;2023-02-13T13:21:04;101721.81;;;5.85;80.16
54512;BME280;40419;47.438;19.026;2023-02-13T13:26:20;101717.28;;;5.85;80.15
54512;BME280;40419;47.438;19.026;2023-02-13T13:28:53;101720.19;;;5.94;79.61
54512;BME280;40419;47.438;19.026;2023-02-13T13:31:22;101723.38;;;5.99;79.59
54512;BME280;40419;47.438;19.026;2023-02-13T13:33:51;101726.53;;;5.93;79.59
54512;BME280;40419;47.438;19.026;2023-02-13T13:39:28;101722.75;;;5.95;79.10
54512;BME280;40419;47.438;19.026;2023-02-13T13:42:13;101723.28;;;5.89;80.16
54512;BME280;40419;47.438;19.026;2023-02-13T13:50:43;101714.84;;;5.82;80.75
54512;BME280;40419;47.438;19.026;2023-02-13T13:53:15;101712.53;;;5.78;81.16
54512;BME280;40419;47.438;19.026;2023-02-13T13:58:25;101731.63;;;5.52;82.02
54512;BME280;40419;47.438;19.026;2023-02-13T14:03:42;101724.78;;;5.48;82.33
54512;BME280;40419;47.438;19.026;2023-02-13T14:06:16;101719.19;;;5.51;82.54
54512;BME280;40419;47.438;19.026;2023-02-13T14:14:04;101721.75;;;5.53;82.20
54512;BME280;40419;47.438;19.026;2023-02-13T14:16:49;101717.47;;;5.50;82.41
54512;BME280;40419;47.438;19.026;2023-02-13T14:19:34;101725.75;;;5.58;81.89
54512;BME280;40419;47.438;19.026;2023-02-13T14:25:22;101732.63;;;5.51;82.65
54512;BME280;40419;47.438;19.026;2023-02-13T14:28:00;101727.22;;;5.62;83.03
54512;BME280;40419;47.438;19.026;2023-02-13T14:30:33;101730.41;;;5.56;82.65
54512;BME280;40419;47.438;19.026;2023-02-13T14:33:04;101734.56;;;5.60;83.53
54512;BME280;40419;47.438;19.026;2023-02-13T14:35:36;101726.84;;;5.67;83.59
54512;BME280;40419;47.438;19.026;2023-02-13T14:38:06;101732.34;;;5.65;83.51
54512;BME280;40419;47.438;19.026;2023-02-13T14:40:52;101722.34;;;5.56;83.86
54512;BME280;40419;47.438;19.026;2023-02-13T14:45:53;101737.25;;;5.60;84.77
54512;BME280;40419;47.438;19.026;2023-02-13T14:48:22;101733.31;;;5.76;83.01
54512;BME280;40419;47.438;19.026;2023-02-13T14:50:52;101731.22;;;5.79;83.20
54512;BME280;40419;47.438;19.026;2023-02-13T14:53:30;101737.97;;;5.74;82.99
54512;BME280;40419;47.438;19.026;2023-02-13T14:56:05;101733.94;;;5.68;82.88
54512;BME280;40419;47.438;19.026;2023-02-13T14:58:35;101736.38;;;5.60;84.30
54512;BME280;40419;47.438;19.026;2023-02-13T15:03:37;101733.31;;;5.64;84.08
54512;BME280;40419;47.438;19.026;2023-02-13T15:06:41;101734.34;;;5.41;85.78
54512;BME280;40419;47.438;19.026;2023-02-13T15:11:52;101721.41;;;5.35;87.52
54512;BME280;40419;47.438;19.026;2023-02-13T15:14:38;101720.19;;;5.16;88.16
54512;BME280;40419;47.438;19.026;2023-02-13T15:17:23;101726.28;;;5.07;88.86
54512;BME280;40419;47.438;19.026;2023-02-13T15:19:51;101733.25;;;5.09;90.18
54512;BME280;40419;47.438;19.026;2023-02-13T15:22:30;101726.75;;;5.01;91.14
54512;BME280;40419;47.438;19.026;2023-02-13T15:24:59;101737.50;;;4.89;91.12
54512;BME280;40419;47.438;19.026;2023-02-13T15:27:27;101734.94;;;4.88;91.77
54512;BME280;40419;47.438;19.026;2023-02-13T15:32:41;101738.56;;;4.75;93.25
54512;BME280;40419;47.438;19.026;2023-02-13T15:37:46;101749.06;;;4.78;93.42
54512;BME280;40419;47.438;19.026;2023-02-13T15:40:26;101742.72;;;4.79;93.50
54512;BME280;40419;47.438;19.026;2023-02-13T15:42:56;101726.13;;;4.74;93.94
54512;BME280;40419;47.438;19.026;2023-02-13T15:45:27;101728.69;;;4.76;94.56
54512;BME280;40419;47.438;19.026;2023-02-13T15:47:55;101731.63;;;4.73;94.49
54512;BME280;40419;47.438;19.026;2023-02-13T15:52:54;101727.41;;;4.57;95.15
54512;BME280;40419;47.438;19.026;2023-02-13T15:55:27;101731.31;;;4.53;96.27
54512;BME280;40419;47.438;19.026;2023-02-13T15:57:56;101728.88;;;4.50;96.89